Randolph, MS (38864)

10:03 PM CST on February 13, 2016 (GMT -0600)
APRSWXNET | | Change Station
CLOSE
Current Station
Personal Weather Station
Location: Pontotoc, MS
Elevation: 380 ft
Nearby Weather Stations

Elev 380 ft 34.28 °N, 89.02 °W | Updated 41 minutes ago

Clear
Clear
32 °F
Feels Like 32 °F
N
2
Wind Variable Wind from ESE
Gusts 7.0 mph

Today
High -- | Low -- °F
--% Chance of Precip.
Yesterday
High -- | Low -- °F
Precip. -- in
Pressure 30.39 in
Visibility 10.0 miles
Clouds Clear
Windchill 32 °F
Dew Point 12 °F
Humidity 43%
Rainfall in
Snow Depth Not available.
6:44 AM 5:38 PM
Waxing Crescent, 37% visible
METAR KUOX 140315Z AUTO 09006KT 10SM CLR M01/M15 A3039 RMK AO2 PWINO PNO
Pressure 30.39 in
Visibility 10.0 miles
Clouds Clear
Windchill 32 °F
Dew Point 12 °F
Humidity 43%
Rainfall in
Snow Depth Not available.
6:44 AM 5:38 PM
Waxing Crescent, 37% visible
METAR KUOX 140315Z AUTO 09006KT 10SM CLR M01/M15 A3039 RMK AO2 PWINO PNO

10-Day Weather Forecast

Almanac

Astronomy

Feb. 13, 2016 Rise Set
Actual Time
Civil Twilight
Nautical Twilight
Astronomical Twilight
Moon
Length of Visible Light
Length of Day
Tomorrow will be .
, % of the Moon is Illuminated

Today's Extremes

State Highs State Lows

Community

WunderPhotos

Upload Photos

1,892,743 photos uploaded!

WunderBlog® & News

Nearby

Air Quality

  Air Quality AQ Index Pollutant
Not available.

Snow Depth

Station Depth Elevation

Earthquake Activity

City Distance Mag. Time & Date
Minimum magnitude displayed is 2.5.

Coastal Water Temperatures

Place Temperature

Stations

Nearby Weather Stations

Station Location Temp. Windchill Dew Point Humidity Wind Precip. Elev Updated Type
                   

Watches & Warnings

There are currently no watches in effect.